Malaspina — WI6803 — position and weather

sailwx.info

Track history (hours):
 
Tides and Currents Weather Stations Pressure Air Temp Water Temp Dewpoint Dewpoint Depression Visibility Wind Speed Wind Dir Waves Ship Positions

Malaspina

Owner: ALASKA, STATE OF, ANCHORAGE, AK. More information available from US FCC via Universal Licensing System and Coast Guard Vessel Documentation Center.

Last reported at 2018-Dec-11 18:47 UTC. Time now 2018-Dec-12 13:51 UTC.
Position N 54°49' W 131°01'.

Type: Ship. MMSI: 367143000.

Date/timePositionNaut miles runAvg speedWind from/ knotsBaromVisibWave heightAir tempDewpointWater temp
2018-Dec-11 18:47N 54°49' W 131°01'710.4
2018-Dec-11 18:08N 54°42' W 131°01'414.2
2018-Dec-11 17:54N 54°42' W 130°55'815.4
2018-Dec-11 17:23N 54°38' W 130°44'615.8
2018-Dec-11 17:01N 54°32' W 130°39'816.9
2018-Dec-11 16:31N 54°24' W 130°37'816.4
2018-Dec-11 16:00N 54°16' W 130°31'612.6
2018-Dec-11 15:30N 54°14' W 130°21'4 6.6
2018-Dec-11 14:58N 54°18' W 130°21'0 0.0
2018-Dec-11 14:25N 54°18' W 130°21'0 0.0
2018-Dec-11 13:58N 54°18' W 130°21'0 0.0
2018-Dec-11 13:28N 54°18' W 130°21'0 0.0
2018-Dec-11 12:58N 54°18' W 130°21'0 0.1
2018-Dec-11 12:30N 54°18' W 130°21'5 9.1
2018-Dec-11 12:01N 54°13' W 130°21'714.3
2018-Dec-11 11:30N 54°17' W 130°32'713.4
2018-Dec-11 11:00N 54°23' W 130°36'714.6
2018-Dec-11 10:30N 54°30' W 130°39'914.6
2018-Dec-11 09:55N 54°38' W 130°45'259 6.0
2018-Dec-09 14:44N 58°09' W 135°17'415.9
2018-Dec-09 14:29N 58°10' W 135°24'3 6.4
2018-Dec-09 13:58N 58°07' W 135°27'0 0.0
2018-Dec-09 13:27N 58°07' W 135°27'2 3.4
2018-Dec-09 13:00N 58°08' W 135°28'  
2018-Dec-06 08:37N 58°09' W 135°17'316.1
2018-Dec-06 08:25N 58°09' W 135°24'3 1.6
2018-Dec-06 06:22N 58°07' W 135°28'511.8
2018-Dec-06 05:57N 58°09' W 135°20'251 6.6
2018-Dec-04 15:58N 54°45' W 130°55'917.0
2018-Dec-04 15:27N 54°39' W 130°46'716.1
2018-Dec-04 15:00N 54°32' W 130°40'816.7
2018-Dec-04 14:30N 54°24' W 130°37'816.7
2018-Dec-04 14:01N 54°17' W 130°31'612.9
2018-Dec-04 13:30N 54°14' W 130°21'4 7.2
2018-Dec-04 13:00N 54°18' W 130°21'0 0.0
2018-Dec-04 12:30N 54°18' W 130°21'0 0.0
2018-Dec-04 12:00N 54°18' W 130°21'0 0.0
2018-Dec-04 11:30N 54°18' W 130°21'0 0.0
2018-Dec-04 11:00N 54°18' W 130°21'0 0.0
2018-Dec-04 10:30N 54°18' W 130°21'0 0.0
2018-Dec-04 10:00N 54°18' W 130°21'3 6.8
2018-Dec-04 09:30N 54°14' W 130°21'510.5
2018-Dec-04 09:01N 54°16' W 130°30'714.5
2018-Dec-04 08:30N 54°22' W 130°36'815.4
2018-Dec-04 08:01N 54°29' W 130°39'814.9
2018-Dec-04 07:27N 54°37' W 130°43'715.5
2018-Dec-04 07:00N 54°42' W 130°51'814.9
2018-Dec-04 06:30N 54°49' W 130°58'245 6.4
2018-Dec-02 16:00N 58°09' W 135°16'713.3
2018-Dec-02 15:30N 58°08' W 135°29'1 1.1
2018-Dec-02 14:18N 58°07' W 135°28'1 4.4
2018-Dec-02 14:01N 58°08' W 135°28'  
Track history (hours):
 
Tides and Currents Weather Stations Pressure Air Temp Water Temp Dewpoint Dewpoint Depression Visibility Wind Speed Wind Dir Waves Ship Positions

Malaspina

Owner: ALASKA, STATE OF, ANCHORAGE, AK. More information available from US FCC via Universal Licensing System and Coast Guard Vessel Documentation Center.

Last reported at 2018-Dec-11 18:47 UTC. Time now 2018-Dec-12 13:51 UTC.
Position N 54°49' W 131°01'.

Type: Ship. MMSI: 367143000.

Date/timePositionNaut miles runAvg speedWind from/ knotsBaromVisibWave heightAir tempDewpointWater temp
2018-Dec-11 18:47N 54°49' W 131°01'710.4
2018-Dec-11 18:08N 54°42' W 131°01'414.2
2018-Dec-11 17:54N 54°42' W 130°55'815.4
2018-Dec-11 17:23N 54°38' W 130°44'615.8
2018-Dec-11 17:01N 54°32' W 130°39'816.9
2018-Dec-11 16:31N 54°24' W 130°37'816.4
2018-Dec-11 16:00N 54°16' W 130°31'612.6
2018-Dec-11 15:30N 54°14' W 130°21'4 6.6
2018-Dec-11 14:58N 54°18' W 130°21'0 0.0
2018-Dec-11 14:25N 54°18' W 130°21'0 0.0
2018-Dec-11 13:58N 54°18' W 130°21'0 0.0
2018-Dec-11 13:28N 54°18' W 130°21'0 0.0
2018-Dec-11 12:58N 54°18' W 130°21'0 0.1
2018-Dec-11 12:30N 54°18' W 130°21'5 9.1
2018-Dec-11 12:01N 54°13' W 130°21'714.3
2018-Dec-11 11:30N 54°17' W 130°32'713.4
2018-Dec-11 11:00N 54°23' W 130°36'714.6
2018-Dec-11 10:30N 54°30' W 130°39'914.6
2018-Dec-11 09:55N 54°38' W 130°45'259 6.0
2018-Dec-09 14:44N 58°09' W 135°17'415.9
2018-Dec-09 14:29N 58°10' W 135°24'3 6.4
2018-Dec-09 13:58N 58°07' W 135°27'0 0.0
2018-Dec-09 13:27N 58°07' W 135°27'2 3.4
2018-Dec-09 13:00N 58°08' W 135°28'  
2018-Dec-06 08:37N 58°09' W 135°17'316.1
2018-Dec-06 08:25N 58°09' W 135°24'3 1.6
2018-Dec-06 06:22N 58°07' W 135°28'511.8
2018-Dec-06 05:57N 58°09' W 135°20'251 6.6
2018-Dec-04 15:58N 54°45' W 130°55'917.0
2018-Dec-04 15:27N 54°39' W 130°46'716.1
2018-Dec-04 15:00N 54°32' W 130°40'816.7
2018-Dec-04 14:30N 54°24' W 130°37'816.7
2018-Dec-04 14:01N 54°17' W 130°31'612.9
2018-Dec-04 13:30N 54°14' W 130°21'4 7.2
2018-Dec-04 13:00N 54°18' W 130°21'0 0.0
2018-Dec-04 12:30N 54°18' W 130°21'0 0.0
2018-Dec-04 12:00N 54°18' W 130°21'0 0.0
2018-Dec-04 11:30N 54°18' W 130°21'0 0.0
2018-Dec-04 11:00N 54°18' W 130°21'0 0.0
2018-Dec-04 10:30N 54°18' W 130°21'0 0.0
2018-Dec-04 10:00N 54°18' W 130°21'3 6.8
2018-Dec-04 09:30N 54°14' W 130°21'510.5
2018-Dec-04 09:01N 54°16' W 130°30'714.5
2018-Dec-04 08:30N 54°22' W 130°36'815.4
2018-Dec-04 08:01N 54°29' W 130°39'814.9
2018-Dec-04 07:27N 54°37' W 130°43'715.5
2018-Dec-04 07:00N 54°42' W 130°51'814.9
2018-Dec-04 06:30N 54°49' W 130°58'245 6.4
2018-Dec-02 16:00N 58°09' W 135°16'713.3
2018-Dec-02 15:30N 58°08' W 135°29'1 1.1
2018-Dec-02 14:18N 58°07' W 135°28'1 4.4
2018-Dec-02 14:01N 58°08' W 135°28'  

Dump ship's entire track history